sensor_id;sensor_type;location;lat;lon;timestamp;P1;durP1;ratioP1;P2;durP2;ratioP2
66139;SDS011;52945;51.908;8.364;2023-12-07T00:01:20;22.63;;;9.40;;
66139;SDS011;52945;51.908;8.364;2023-12-07T00:04:21;22.50;;;8.90;;
66139;SDS011;52945;51.908;8.364;2023-12-07T00:07:21;20.13;;;8.20;;
66139;SDS011;52945;51.908;8.364;2023-12-07T00:10:22;22.42;;;8.77;;
66139;SDS011;52945;51.908;8.364;2023-12-07T00:13:22;21.73;;;7.82;;
66139;SDS011;52945;51.908;8.364;2023-12-07T00:16:23;22.02;;;8.90;;
66139;SDS011;52945;51.908;8.364;2023-12-07T00:19:24;16.75;;;8.27;;
66139;SDS011;52945;51.908;8.364;2023-12-07T00:22:24;18.98;;;7.88;;
66139;SDS011;52945;51.908;8.364;2023-12-07T00:25:26;18.70;;;8.68;;
66139;SDS011;52945;51.908;8.364;2023-12-07T00:28:26;22.67;;;8.32;;
66139;SDS011;52945;51.908;8.364;2023-12-07T00:31:27;20.60;;;8.60;;
66139;SDS011;52945;51.908;8.364;2023-12-07T00:34:28;18.98;;;8.85;;
66139;SDS011;52945;51.908;8.364;2023-12-07T00:37:28;20.13;;;8.48;;
66139;SDS011;52945;51.908;8.364;2023-12-07T00:40:29;18.65;;;8.35;;
66139;SDS011;52945;51.908;8.364;2023-12-07T00:43:29;22.75;;;8.77;;
66139;SDS011;52945;51.908;8.364;2023-12-07T00:46:30;19.55;;;8.68;;
66139;SDS011;52945;51.908;8.364;2023-12-07T00:49:30;23.73;;;8.98;;
66139;SDS011;52945;51.908;8.364;2023-12-07T00:52:31;21.77;;;9.50;;
66139;SDS011;52945;51.908;8.364;2023-12-07T00:55:32;21.70;;;8.55;;
66139;SDS011;52945;51.908;8.364;2023-12-07T00:58:32;20.25;;;7.95;;
66139;SDS011;52945;51.908;8.364;2023-12-07T01:01:33;20.35;;;8.88;;
66139;SDS011;52945;51.908;8.364;2023-12-07T01:04:33;18.85;;;8.18;;
66139;SDS011;52945;51.908;8.364;2023-12-07T01:07:34;23.50;;;8.98;;
66139;SDS011;52945;51.908;8.364;2023-12-07T01:10:34;19.83;;;9.00;;
66139;SDS011;52945;51.908;8.364;2023-12-07T01:13:35;16.23;;;8.18;;
66139;SDS011;52945;51.908;8.364;2023-12-07T01:16:36;24.13;;;9.32;;
66139;SDS011;52945;51.908;8.364;2023-12-07T01:19:37;23.33;;;9.00;;
66139;SDS011;52945;51.908;8.364;2023-12-07T01:22:38;18.75;;;9.05;;
66139;SDS011;52945;51.908;8.364;2023-12-07T01:25:40;22.48;;;10.25;;
66139;SDS011;52945;51.908;8.364;2023-12-07T01:28:40;22.13;;;9.85;;
66139;SDS011;52945;51.908;8.364;2023-12-07T01:31:41;17.83;;;8.10;;
66139;SDS011;52945;51.908;8.364;2023-12-07T01:34:42;18.88;;;8.27;;
66139;SDS011;52945;51.908;8.364;2023-12-07T01:37:42;22.63;;;9.48;;
66139;SDS011;52945;51.908;8.364;2023-12-07T01:40:43;18.83;;;7.72;;
66139;SDS011;52945;51.908;8.364;2023-12-07T01:43:47;18.50;;;7.32;;
66139;SDS011;52945;51.908;8.364;2023-12-07T01:46:48;21.30;;;8.82;;
66139;SDS011;52945;51.908;8.364;2023-12-07T01:49:48;22.02;;;9.07;;
66139;SDS011;52945;51.908;8.364;2023-12-07T01:52:49;24.40;;;8.20;;
66139;SDS011;52945;51.908;8.364;2023-12-07T01:55:54;18.92;;;8.90;;
66139;SDS011;52945;51.908;8.364;2023-12-07T01:58:56;17.58;;;7.90;;
66139;SDS011;52945;51.908;8.364;2023-12-07T02:01:57;17.73;;;7.38;;
66139;SDS011;52945;51.908;8.364;2023-12-07T02:04:58;19.80;;;8.95;;
66139;SDS011;52945;51.908;8.364;2023-12-07T02:07:58;20.55;;;8.52;;
66139;SDS011;52945;51.908;8.364;2023-12-07T02:10:59;23.10;;;9.13;;
66139;SDS011;52945;51.908;8.364;2023-12-07T02:14:00;22.45;;;10.00;;
66139;SDS011;52945;51.908;8.364;2023-12-07T02:17:07;21.63;;;8.57;;
66139;SDS011;52945;51.908;8.364;2023-12-07T02:20:43;19.42;;;7.88;;
66139;SDS011;52945;51.908;8.364;2023-12-07T02:23:51;18.63;;;8.45;;
66139;SDS011;52945;51.908;8.364;2023-12-07T02:29:54;15.05;;;7.35;;
66139;SDS011;52945;51.908;8.364;2023-12-07T02:32:54;17.77;;;8.10;;
66139;SDS011;52945;51.908;8.364;2023-12-07T02:35:55;18.45;;;9.10;;
66139;SDS011;52945;51.908;8.364;2023-12-07T02:38:59;21.80;;;8.30;;
66139;SDS011;52945;51.908;8.364;2023-12-07T02:42:03;18.42;;;7.90;;
66139;SDS011;52945;51.908;8.364;2023-12-07T02:45:05;16.67;;;7.38;;
66139;SDS011;52945;51.908;8.364;2023-12-07T02:48:07;22.25;;;10.05;;
66139;SDS011;52945;51.908;8.364;2023-12-07T02:51:08;18.10;;;9.35;;
66139;SDS011;52945;51.908;8.364;2023-12-07T02:54:09;24.20;;;9.00;;
66139;SDS011;52945;51.908;8.364;2023-12-07T02:57:10;18.50;;;8.65;;
66139;SDS011;52945;51.908;8.364;2023-12-07T03:00:10;19.17;;;9.13;;
66139;SDS011;52945;51.908;8.364;2023-12-07T03:03:13;19.17;;;8.55;;
66139;SDS011;52945;51.908;8.364;2023-12-07T03:06:14;24.35;;;9.07;;
66139;SDS011;52945;51.908;8.364;2023-12-07T03:09:16;18.75;;;8.68;;
66139;SDS011;52945;51.908;8.364;2023-12-07T03:12:16;16.35;;;7.95;;
66139;SDS011;52945;51.908;8.364;2023-12-07T03:15:17;18.15;;;8.80;;
66139;SDS011;52945;51.908;8.364;2023-12-07T03:18:18;20.33;;;9.07;;
66139;SDS011;52945;51.908;8.364;2023-12-07T03:21:18;17.50;;;7.53;;
66139;SDS011;52945;51.908;8.364;2023-12-07T03:24:19;17.75;;;8.88;;
66139;SDS011;52945;51.908;8.364;2023-12-07T03:27:20;17.25;;;8.50;;
66139;SDS011;52945;51.908;8.364;2023-12-07T03:30:20;19.10;;;8.82;;
66139;SDS011;52945;51.908;8.364;2023-12-07T03:33:21;18.67;;;8.27;;
66139;SDS011;52945;51.908;8.364;2023-12-07T03:36:22;18.70;;;8.65;;
66139;SDS011;52945;51.908;8.364;2023-12-07T03:39:23;20.67;;;8.82;;
66139;SDS011;52945;51.908;8.364;2023-12-07T03:42:25;18.30;;;7.93;;
66139;SDS011;52945;51.908;8.364;2023-12-07T03:45:25;18.65;;;8.10;;
66139;SDS011;52945;51.908;8.364;2023-12-07T03:48:26;17.88;;;7.88;;
66139;SDS011;52945;51.908;8.364;2023-12-07T03:51:27;19.35;;;8.23;;
66139;SDS011;52945;51.908;8.364;2023-12-07T03:54:28;19.45;;;8.50;;
66139;SDS011;52945;51.908;8.364;2023-12-07T03:57:28;19.73;;;7.57;;
66139;SDS011;52945;51.908;8.364;2023-12-07T04:00:29;18.00;;;8.55;;
66139;SDS011;52945;51.908;8.364;2023-12-07T04:03:30;19.63;;;8.00;;
66139;SDS011;52945;51.908;8.364;2023-12-07T04:06:30;18.75;;;7.82;;
66139;SDS011;52945;51.908;8.364;2023-12-07T04:09:31;17.55;;;8.00;;
66139;SDS011;52945;51.908;8.364;2023-12-07T04:12:31;19.40;;;7.95;;
66139;SDS011;52945;51.908;8.364;2023-12-07T04:15:32;14.90;;;8.13;;
66139;SDS011;52945;51.908;8.364;2023-12-07T04:18:33;20.50;;;9.00;;
66139;SDS011;52945;51.908;8.364;2023-12-07T04:21:33;15.13;;;7.35;;
66139;SDS011;52945;51.908;8.364;2023-12-07T04:24:34;19.63;;;9.00;;
66139;SDS011;52945;51.908;8.364;2023-12-07T04:27:34;20.55;;;10.05;;
66139;SDS011;52945;51.908;8.364;2023-12-07T04:30:35;18.05;;;8.90;;
66139;SDS011;52945;51.908;8.364;2023-12-07T04:33:36;19.20;;;8.43;;
66139;SDS011;52945;51.908;8.364;2023-12-07T04:36:36;20.10;;;8.75;;
66139;SDS011;52945;51.908;8.364;2023-12-07T04:39:37;22.75;;;9.55;;
66139;SDS011;52945;51.908;8.364;2023-12-07T04:42:37;17.95;;;8.07;;
66139;SDS011;52945;51.908;8.364;2023-12-07T04:45:38;19.15;;;8.00;;
66139;SDS011;52945;51.908;8.364;2023-12-07T04:48:38;20.73;;;7.95;;
66139;SDS011;52945;51.908;8.364;2023-12-07T04:51:40;19.20;;;8.07;;
66139;SDS011;52945;51.908;8.364;2023-12-07T04:54:42;18.08;;;8.57;;
66139;SDS011;52945;51.908;8.364;2023-12-07T04:57:42;17.92;;;8.13;;
66139;SDS011;52945;51.908;8.364;2023-12-07T05:00:43;18.95;;;8.32;;
66139;SDS011;52945;51.908;8.364;2023-12-07T05:03:43;19.67;;;10.18;;
66139;SDS011;52945;51.908;8.364;2023-12-07T05:06:44;19.60;;;7.95;;
66139;SDS011;52945;51.908;8.364;2023-12-07T05:09:45;18.58;;;8.45;;
66139;SDS011;52945;51.908;8.364;2023-12-07T05:12:45;18.00;;;8.07;;
66139;SDS011;52945;51.908;8.364;2023-12-07T05:15:46;21.25;;;9.55;;
66139;SDS011;52945;51.908;8.364;2023-12-07T05:18:47;19.60;;;8.05;;
66139;SDS011;52945;51.908;8.364;2023-12-07T05:21:47;23.60;;;9.30;;
66139;SDS011;52945;51.908;8.364;2023-12-07T05:24:48;22.25;;;9.18;;
66139;SDS011;52945;51.908;8.364;2023-12-07T05:27:50;17.75;;;7.97;;
66139;SDS011;52945;51.908;8.364;2023-12-07T05:30:50;19.15;;;8.10;;
66139;SDS011;52945;51.908;8.364;2023-12-07T05:33:52;21.63;;;8.82;;
66139;SDS011;52945;51.908;8.364;2023-12-07T05:36:52;24.80;;;8.88;;
66139;SDS011;52945;51.908;8.364;2023-12-07T05:39:53;21.42;;;8.75;;
66139;SDS011;52945;51.908;8.364;2023-12-07T05:42:53;19.50;;;9.13;;
66139;SDS011;52945;51.908;8.364;2023-12-07T05:45:54;20.40;;;8.63;;
66139;SDS011;52945;51.908;8.364;2023-12-07T05:48:54;20.48;;;8.23;;
66139;SDS011;52945;51.908;8.364;2023-12-07T05:51:55;20.45;;;9.15;;
66139;SDS011;52945;51.908;8.364;2023-12-07T05:54:55;19.58;;;9.18;;
66139;SDS011;52945;51.908;8.364;2023-12-07T05:57:56;22.00;;;9.32;;
66139;SDS011;52945;51.908;8.364;2023-12-07T06:00:57;20.15;;;8.65;;
66139;SDS011;52945;51.908;8.364;2023-12-07T06:03:59;17.17;;;8.52;;
66139;SDS011;52945;51.908;8.364;2023-12-07T06:07:00;21.13;;;9.85;;
66139;SDS011;52945;51.908;8.364;2023-12-07T06:10:00;19.90;;;8.65;;
66139;SDS011;52945;51.908;8.364;2023-12-07T06:13:01;24.33;;;9.82;;
66139;SDS011;52945;51.908;8.364;2023-12-07T06:16:02;26.15;;;9.73;;
66139;SDS011;52945;51.908;8.364;2023-12-07T06:19:03;21.77;;;8.85;;
66139;SDS011;52945;51.908;8.364;2023-12-07T06:22:03;21.33;;;9.45;;
66139;SDS011;52945;51.908;8.364;2023-12-07T06:25:04;26.65;;;10.15;;
66139;SDS011;52945;51.908;8.364;2023-12-07T06:28:05;23.98;;;10.52;;
66139;SDS011;52945;51.908;8.364;2023-12-07T06:31:06;25.02;;;9.73;;
66139;SDS011;52945;51.908;8.364;2023-12-07T06:34:07;26.17;;;9.02;;
66139;SDS011;52945;51.908;8.364;2023-12-07T06:37:07;29.00;;;10.75;;
66139;SDS011;52945;51.908;8.364;2023-12-07T06:40:11;26.10;;;9.82;;
66139;SDS011;52945;51.908;8.364;2023-12-07T06:46:13;19.77;;;8.90;;
66139;SDS011;52945;51.908;8.364;2023-12-07T06:49:13;25.83;;;10.27;;
66139;SDS011;52945;51.908;8.364;2023-12-07T06:52:14;23.20;;;9.70;;
66139;SDS011;52945;51.908;8.364;2023-12-07T06:55:15;24.17;;;9.38;;
66139;SDS011;52945;51.908;8.364;2023-12-07T06:58:15;26.92;;;10.52;;
66139;SDS011;52945;51.908;8.364;2023-12-07T07:01:16;23.83;;;10.55;;
66139;SDS011;52945;51.908;8.364;2023-12-07T07:04:17;24.73;;;10.32;;
66139;SDS011;52945;51.908;8.364;2023-12-07T07:07:18;29.73;;;9.90;;
66139;SDS011;52945;51.908;8.364;2023-12-07T07:10:19;27.83;;;10.43;;
66139;SDS011;52945;51.908;8.364;2023-12-07T07:13:19;37.40;;;12.43;;
66139;SDS011;52945;51.908;8.364;2023-12-07T07:16:20;36.42;;;11.77;;
66139;SDS011;52945;51.908;8.364;2023-12-07T07:19:20;29.35;;;12.55;;
66139;SDS011;52945;51.908;8.364;2023-12-07T07:22:21;36.45;;;12.88;;
66139;SDS011;52945;51.908;8.364;2023-12-07T07:25:21;36.28;;;12.25;;
66139;SDS011;52945;51.908;8.364;2023-12-07T07:28:22;34.72;;;11.88;;
66139;SDS011;52945;51.908;8.364;2023-12-07T07:31:23;37.97;;;10.32;;
66139;SDS011;52945;51.908;8.364;2023-12-07T07:34:23;39.08;;;12.60;;
66139;SDS011;52945;51.908;8.364;2023-12-07T07:37:25;29.17;;;10.75;;
66139;SDS011;52945;51.908;8.364;2023-12-07T07:40:26;40.10;;;12.15;;
66139;SDS011;52945;51.908;8.364;2023-12-07T07:43:26;31.58;;;10.65;;
66139;SDS011;52945;51.908;8.364;2023-12-07T07:46:27;30.92;;;10.55;;
66139;SDS011;52945;51.908;8.364;2023-12-07T07:49:27;38.00;;;11.55;;
66139;SDS011;52945;51.908;8.364;2023-12-07T07:52:28;43.97;;;12.55;;
66139;SDS011;52945;51.908;8.364;2023-12-07T07:55:28;37.42;;;11.30;;
66139;SDS011;52945;51.908;8.364;2023-12-07T07:58:29;30.98;;;11.25;;
66139;SDS011;52945;51.908;8.364;2023-12-07T08:01:30;32.17;;;11.07;;
66139;SDS011;52945;51.908;8.364;2023-12-07T08:04:30;36.40;;;11.73;;
66139;SDS011;52945;51.908;8.364;2023-12-07T08:07:32;31.80;;;12.40;;
66139;SDS011;52945;51.908;8.364;2023-12-07T08:10:33;30.83;;;10.98;;
66139;SDS011;52945;51.908;8.364;2023-12-07T08:13:33;31.30;;;11.82;;
66139;SDS011;52945;51.908;8.364;2023-12-07T08:16:34;30.50;;;11.25;;
66139;SDS011;52945;51.908;8.364;2023-12-07T08:19:34;40.55;;;11.18;;
66139;SDS011;52945;51.908;8.364;2023-12-07T08:22:35;33.15;;;11.50;;
66139;SDS011;52945;51.908;8.364;2023-12-07T08:25:39;40.58;;;10.68;;
66139;SDS011;52945;51.908;8.364;2023-12-07T08:28:40;35.45;;;11.73;;
66139;SDS011;52945;51.908;8.364;2023-12-07T08:31:41;37.20;;;11.85;;
66139;SDS011;52945;51.908;8.364;2023-12-07T08:34:42;39.83;;;12.07;;
66139;SDS011;52945;51.908;8.364;2023-12-07T08:40:44;33.10;;;10.35;;
66139;SDS011;52945;51.908;8.364;2023-12-07T08:43:45;25.52;;;9.88;;
66139;SDS011;52945;51.908;8.364;2023-12-07T08:46:45;32.05;;;10.65;;
66139;SDS011;52945;51.908;8.364;2023-12-07T08:49:46;29.20;;;9.52;;
66139;SDS011;52945;51.908;8.364;2023-12-07T08:52:47;31.52;;;10.35;;
66139;SDS011;52945;51.908;8.364;2023-12-07T08:55:47;24.30;;;9.25;;
66139;SDS011;52945;51.908;8.364;2023-12-07T08:58:48;30.42;;;9.82;;
66139;SDS011;52945;51.908;8.364;2023-12-07T09:01:48;25.77;;;8.63;;
66139;SDS011;52945;51.908;8.364;2023-12-07T09:04:49;32.92;;;10.13;;
66139;SDS011;52945;51.908;8.364;2023-12-07T09:07:51;28.20;;;9.13;;
66139;SDS011;52945;51.908;8.364;2023-12-07T09:10:52;19.70;;;8.50;;
66139;SDS011;52945;51.908;8.364;2023-12-07T09:13:53;31.42;;;9.52;;
66139;SDS011;52945;51.908;8.364;2023-12-07T09:16:54;28.13;;;9.30;;
66139;SDS011;52945;51.908;8.364;2023-12-07T09:19:54;30.60;;;11.45;;
66139;SDS011;52945;51.908;8.364;2023-12-07T09:22:55;29.38;;;9.63;;
66139;SDS011;52945;51.908;8.364;2023-12-07T09:25:57;26.67;;;9.32;;
66139;SDS011;52945;51.908;8.364;2023-12-07T09:28:57;29.17;;;9.68;;
66139;SDS011;52945;51.908;8.364;2023-12-07T09:31:58;26.17;;;9.25;;
66139;SDS011;52945;51.908;8.364;2023-12-07T09:34:58;30.75;;;10.82;;
66139;SDS011;52945;51.908;8.364;2023-12-07T09:37:59;25.33;;;9.10;;
66139;SDS011;52945;51.908;8.364;2023-12-07T09:41:00;30.08;;;11.43;;
66139;SDS011;52945;51.908;8.364;2023-12-07T09:44:00;30.30;;;9.77;;
66139;SDS011;52945;51.908;8.364;2023-12-07T09:47:01;26.35;;;9.77;;
66139;SDS011;52945;51.908;8.364;2023-12-07T09:50:02;25.73;;;9.43;;
66139;SDS011;52945;51.908;8.364;2023-12-07T09:53:02;27.73;;;9.40;;
66139;SDS011;52945;51.908;8.364;2023-12-07T09:56:03;32.17;;;10.50;;
66139;SDS011;52945;51.908;8.364;2023-12-07T09:59:05;29.35;;;10.05;;
66139;SDS011;52945;51.908;8.364;2023-12-07T10:02:07;29.52;;;9.55;;
66139;SDS011;52945;51.908;8.364;2023-12-07T10:05:08;28.65;;;9.68;;
66139;SDS011;52945;51.908;8.364;2023-12-07T10:08:11;28.00;;;9.73;;
66139;SDS011;52945;51.908;8.364;2023-12-07T10:11:32;24.65;;;9.80;;
66139;SDS011;52945;51.908;8.364;2023-12-07T10:14:32;22.05;;;8.63;;
66139;SDS011;52945;51.908;8.364;2023-12-07T10:17:52;25.65;;;8.73;;
66139;SDS011;52945;51.908;8.364;2023-12-07T10:20:54;30.00;;;9.63;;
66139;SDS011;52945;51.908;8.364;2023-12-07T10:23:55;23.65;;;10.00;;
66139;SDS011;52945;51.908;8.364;2023-12-07T10:26:55;30.73;;;10.65;;
66139;SDS011;52945;51.908;8.364;2023-12-07T10:29:58;22.13;;;9.32;;
66139;SDS011;52945;51.908;8.364;2023-12-07T10:32:59;27.65;;;9.38;;
66139;SDS011;52945;51.908;8.364;2023-12-07T10:35:59;29.95;;;10.00;;
66139;SDS011;52945;51.908;8.364;2023-12-07T10:39:03;26.58;;;8.98;;
66139;SDS011;52945;51.908;8.364;2023-12-07T10:42:07;29.30;;;9.55;;
66139;SDS011;52945;51.908;8.364;2023-12-07T10:45:12;28.25;;;10.23;;
66139;SDS011;52945;51.908;8.364;2023-12-07T10:48:15;27.35;;;9.55;;
66139;SDS011;52945;51.908;8.364;2023-12-07T10:51:22;23.38;;;8.40;;
66139;SDS011;52945;51.908;8.364;2023-12-07T10:54:35;22.50;;;8.63;;
66139;SDS011;52945;51.908;8.364;2023-12-07T10:57:43;25.15;;;8.07;;
66139;SDS011;52945;51.908;8.364;2023-12-07T11:00:46;22.02;;;9.25;;
66139;SDS011;52945;51.908;8.364;2023-12-07T11:03:49;23.40;;;8.27;;
66139;SDS011;52945;51.908;8.364;2023-12-07T11:06:50;17.88;;;7.22;;
66139;SDS011;52945;51.908;8.364;2023-12-07T11:10:03;16.65;;;6.55;;
66139;SDS011;52945;51.908;8.364;2023-12-07T11:13:17;16.55;;;7.32;;
66139;SDS011;52945;51.908;8.364;2023-12-07T11:19:48;15.80;;;6.78;;
66139;SDS011;52945;51.908;8.364;2023-12-07T11:22:49;18.55;;;7.75;;
66139;SDS011;52945;51.908;8.364;2023-12-07T11:25:52;18.58;;;6.68;;
66139;SDS011;52945;51.908;8.364;2023-12-07T11:28:54;21.00;;;7.53;;
66139;SDS011;52945;51.908;8.364;2023-12-07T11:32:04;21.60;;;6.97;;
66139;SDS011;52945;51.908;8.364;2023-12-07T11:35:07;18.08;;;7.47;;
66139;SDS011;52945;51.908;8.364;2023-12-07T11:38:12;16.48;;;6.82;;
66139;SDS011;52945;51.908;8.364;2023-12-07T11:41:14;23.45;;;8.27;;
66139;SDS011;52945;51.908;8.364;2023-12-07T11:44:15;21.88;;;7.90;;
66139;SDS011;52945;51.908;8.364;2023-12-07T11:47:18;21.80;;;7.50;;
66139;SDS011;52945;51.908;8.364;2023-12-07T11:50:20;25.33;;;8.35;;
66139;SDS011;52945;51.908;8.364;2023-12-07T11:53:21;23.88;;;8.25;;
66139;SDS011;52945;51.908;8.364;2023-12-07T11:56:26;17.40;;;7.20;;
66139;SDS011;52945;51.908;8.364;2023-12-07T11:59:26;21.45;;;7.85;;
66139;SDS011;52945;51.908;8.364;2023-12-07T12:02:28;18.58;;;7.28;;
66139;SDS011;52945;51.908;8.364;2023-12-07T12:05:34;18.20;;;7.28;;
66139;SDS011;52945;51.908;8.364;2023-12-07T12:08:34;17.40;;;6.85;;
66139;SDS011;52945;51.908;8.364;2023-12-07T12:11:35;22.40;;;8.02;;
66139;SDS011;52945;51.908;8.364;2023-12-07T12:14:35;15.85;;;6.82;;
66139;SDS011;52945;51.908;8.364;2023-12-07T12:17:36;18.80;;;7.90;;
66139;SDS011;52945;51.908;8.364;2023-12-07T12:20:37;16.88;;;7.43;;
66139;SDS011;52945;51.908;8.364;2023-12-07T12:23:37;21.35;;;8.07;;
66139;SDS011;52945;51.908;8.364;2023-12-07T12:26:40;19.75;;;7.72;;
66139;SDS011;52945;51.908;8.364;2023-12-07T12:29:42;17.75;;;7.20;;
66139;SDS011;52945;51.908;8.364;2023-12-07T12:32:43;16.05;;;7.53;;
66139;SDS011;52945;51.908;8.364;2023-12-07T12:35:44;17.42;;;7.20;;
66139;SDS011;52945;51.908;8.364;2023-12-07T12:38:46;16.30;;;7.00;;
66139;SDS011;52945;51.908;8.364;2023-12-07T12:41:49;19.85;;;7.65;;
66139;SDS011;52945;51.908;8.364;2023-12-07T12:44:54;19.27;;;7.75;;
66139;SDS011;52945;51.908;8.364;2023-12-07T12:47:55;15.90;;;6.82;;
66139;SDS011;52945;51.908;8.364;2023-12-07T12:50:56;18.25;;;6.88;;
66139;SDS011;52945;51.908;8.364;2023-12-07T12:53:58;20.90;;;7.68;;
66139;SDS011;52945;51.908;8.364;2023-12-07T12:56:59;19.08;;;7.32;;
66139;SDS011;52945;51.908;8.364;2023-12-07T13:00:00;21.20;;;7.50;;
66139;SDS011;52945;51.908;8.364;2023-12-07T13:03:03;17.67;;;7.20;;
66139;SDS011;52945;51.908;8.364;2023-12-07T13:06:05;16.05;;;7.22;;
66139;SDS011;52945;51.908;8.364;2023-12-07T13:09:05;16.67;;;7.07;;
66139;SDS011;52945;51.908;8.364;2023-12-07T13:12:06;15.45;;;6.53;;
66139;SDS011;52945;51.908;8.364;2023-12-07T13:15:08;14.73;;;6.70;;
66139;SDS011;52945;51.908;8.364;2023-12-07T13:18:09;17.52;;;7.53;;
66139;SDS011;52945;51.908;8.364;2023-12-07T13:21:10;16.95;;;7.18;;
66139;SDS011;52945;51.908;8.364;2023-12-07T13:24:11;14.60;;;6.32;;
66139;SDS011;52945;51.908;8.364;2023-12-07T13:27:12;15.75;;;6.70;;
66139;SDS011;52945;51.908;8.364;2023-12-07T13:30:14;17.02;;;7.20;;
66139;SDS011;52945;51.908;8.364;2023-12-07T13:33:15;20.35;;;6.72;;
66139;SDS011;52945;51.908;8.364;2023-12-07T13:36:15;18.25;;;6.88;;
66139;SDS011;52945;51.908;8.364;2023-12-07T13:39:20;14.00;;;6.20;;
66139;SDS011;52945;51.908;8.364;2023-12-07T13:42:21;18.25;;;7.13;;
66139;SDS011;52945;51.908;8.364;2023-12-07T13:45:21;14.00;;;6.30;;
66139;SDS011;52945;51.908;8.364;2023-12-07T13:48:22;13.50;;;6.00;;
66139;SDS011;52945;51.908;8.364;2023-12-07T13:51:23;15.68;;;6.15;;
66139;SDS011;52945;51.908;8.364;2023-12-07T13:54:23;13.88;;;5.80;;
66139;SDS011;52945;51.908;8.364;2023-12-07T13:57:24;12.40;;;5.78;;
66139;SDS011;52945;51.908;8.364;2023-12-07T14:00:24;11.48;;;6.05;;
66139;SDS011;52945;51.908;8.364;2023-12-07T14:03:25;17.95;;;6.88;;
66139;SDS011;52945;51.908;8.364;2023-12-07T14:06:25;14.40;;;5.32;;
66139;SDS011;52945;51.908;8.364;2023-12-07T14:09:27;13.05;;;6.68;;
66139;SDS011;52945;51.908;8.364;2023-12-07T14:12:27;13.85;;;6.30;;
66139;SDS011;52945;51.908;8.364;2023-12-07T14:15:28;13.02;;;5.70;;
66139;SDS011;52945;51.908;8.364;2023-12-07T14:18:29;11.45;;;5.30;;
66139;SDS011;52945;51.908;8.364;2023-12-07T14:21:29;10.82;;;5.50;;
66139;SDS011;52945;51.908;8.364;2023-12-07T14:24:30;13.18;;;5.25;;
66139;SDS011;52945;51.908;8.364;2023-12-07T14:27:31;14.85;;;5.25;;
66139;SDS011;52945;51.908;8.364;2023-12-07T14:30:32;12.88;;;5.57;;
66139;SDS011;52945;51.908;8.364;2023-12-07T14:33:32;11.85;;;5.13;;
66139;SDS011;52945;51.908;8.364;2023-12-07T14:36:33;14.65;;;5.78;;
66139;SDS011;52945;51.908;8.364;2023-12-07T14:39:34;11.75;;;5.72;;
66139;SDS011;52945;51.908;8.364;2023-12-07T14:42:36;10.45;;;5.53;;
66139;SDS011;52945;51.908;8.364;2023-12-07T14:45:36;11.88;;;5.43;;
66139;SDS011;52945;51.908;8.364;2023-12-07T14:48:37;14.70;;;4.82;;
66139;SDS011;52945;51.908;8.364;2023-12-07T14:51:37;11.45;;;5.10;;
66139;SDS011;52945;51.908;8.364;2023-12-07T14:54:38;11.35;;;5.43;;
66139;SDS011;52945;51.908;8.364;2023-12-07T14:57:39;12.77;;;4.68;;
66139;SDS011;52945;51.908;8.364;2023-12-07T15:00:41;13.13;;;5.47;;
66139;SDS011;52945;51.908;8.364;2023-12-07T15:03:41;11.15;;;5.07;;
66139;SDS011;52945;51.908;8.364;2023-12-07T15:06:42;12.90;;;5.47;;
66139;SDS011;52945;51.908;8.364;2023-12-07T15:09:43;7.93;;;4.28;;
66139;SDS011;52945;51.908;8.364;2023-12-07T15:12:43;14.95;;;5.15;;
66139;SDS011;52945;51.908;8.364;2023-12-07T15:15:44;11.52;;;5.47;;
66139;SDS011;52945;51.908;8.364;2023-12-07T15:18:45;13.52;;;5.60;;
66139;SDS011;52945;51.908;8.364;2023-12-07T15:21:45;9.20;;;4.32;;
66139;SDS011;52945;51.908;8.364;2023-12-07T15:24:46;12.73;;;5.50;;
66139;SDS011;52945;51.908;8.364;2023-12-07T15:27:46;13.75;;;5.68;;
66139;SDS011;52945;51.908;8.364;2023-12-07T15:30:47;14.45;;;5.80;;
66139;SDS011;52945;51.908;8.364;2023-12-07T15:33:48;10.90;;;5.93;;
66139;SDS011;52945;51.908;8.364;2023-12-07T15:36:49;16.27;;;6.10;;
66139;SDS011;52945;51.908;8.364;2023-12-07T15:39:50;11.48;;;6.20;;
66139;SDS011;52945;51.908;8.364;2023-12-07T15:42:53;10.50;;;5.43;;
66139;SDS011;52945;51.908;8.364;2023-12-07T15:45:54;13.00;;;6.18;;
66139;SDS011;52945;51.908;8.364;2023-12-07T15:48:54;13.70;;;6.22;;
66139;SDS011;52945;51.908;8.364;2023-12-07T15:51:55;10.93;;;5.30;;
66139;SDS011;52945;51.908;8.364;2023-12-07T15:54:56;10.52;;;4.72;;
66139;SDS011;52945;51.908;8.364;2023-12-07T15:57:56;8.82;;;4.22;;
66139;SDS011;52945;51.908;8.364;2023-12-07T16:00:57;11.23;;;4.38;;
66139;SDS011;52945;51.908;8.364;2023-12-07T16:03:57;12.65;;;4.78;;
66139;SDS011;52945;51.908;8.364;2023-12-07T16:06:58;9.43;;;3.95;;
66139;SDS011;52945;51.908;8.364;2023-12-07T16:09:59;13.18;;;4.43;;
66139;SDS011;52945;51.908;8.364;2023-12-07T16:12:59;13.55;;;4.30;;
66139;SDS011;52945;51.908;8.364;2023-12-07T16:16:00;10.38;;;4.85;;
66139;SDS011;52945;51.908;8.364;2023-12-07T16:19:02;9.65;;;4.85;;
66139;SDS011;52945;51.908;8.364;2023-12-07T16:22:02;10.05;;;4.68;;
66139;SDS011;52945;51.908;8.364;2023-12-07T16:25:03;13.10;;;4.50;;
66139;SDS011;52945;51.908;8.364;2023-12-07T16:28:04;9.85;;;4.72;;
66139;SDS011;52945;51.908;8.364;2023-12-07T16:31:06;10.88;;;5.15;;
66139;SDS011;52945;51.908;8.364;2023-12-07T16:34:06;12.25;;;4.78;;
66139;SDS011;52945;51.908;8.364;2023-12-07T16:37:07;11.63;;;5.70;;
66139;SDS011;52945;51.908;8.364;2023-12-07T16:40:08;12.18;;;5.65;;
66139;SDS011;52945;51.908;8.364;2023-12-07T16:43:09;9.70;;;4.50;;
66139;SDS011;52945;51.908;8.364;2023-12-07T16:46:09;13.23;;;4.80;;
66139;SDS011;52945;51.908;8.364;2023-12-07T16:49:10;10.70;;;4.32;;
66139;SDS011;52945;51.908;8.364;2023-12-07T16:52:15;10.35;;;3.88;;
66139;SDS011;52945;51.908;8.364;2023-12-07T16:55:17;10.00;;;4.60;;
66139;SDS011;52945;51.908;8.364;2023-12-07T16:58:17;11.35;;;5.53;;
66139;SDS011;52945;51.908;8.364;2023-12-07T17:01:18;11.38;;;4.65;;
66139;SDS011;52945;51.908;8.364;2023-12-07T17:04:18;11.52;;;5.22;;
66139;SDS011;52945;51.908;8.364;2023-12-07T17:07:19;10.65;;;5.07;;
66139;SDS011;52945;51.908;8.364;2023-12-07T17:10:20;12.73;;;5.40;;
66139;SDS011;52945;51.908;8.364;2023-12-07T17:13:20;13.50;;;5.53;;
66139;SDS011;52945;51.908;8.364;2023-12-07T17:16:21;9.95;;;4.82;;
66139;SDS011;52945;51.908;8.364;2023-12-07T17:19:21;12.60;;;6.00;;
66139;SDS011;52945;51.908;8.364;2023-12-07T17:22:22;10.00;;;5.07;;
66139;SDS011;52945;51.908;8.364;2023-12-07T17:25:23;12.75;;;6.05;;
66139;SDS011;52945;51.908;8.364;2023-12-07T17:28:24;11.60;;;5.53;;
66139;SDS011;52945;51.908;8.364;2023-12-07T17:31:25;15.32;;;6.78;;
66139;SDS011;52945;51.908;8.364;2023-12-07T17:34:25;12.82;;;5.43;;
66139;SDS011;52945;51.908;8.364;2023-12-07T17:37:26;10.50;;;5.28;;
66139;SDS011;52945;51.908;8.364;2023-12-07T17:40:27;14.90;;;6.03;;
66139;SDS011;52945;51.908;8.364;2023-12-07T17:43:27;10.77;;;4.75;;
66139;SDS011;52945;51.908;8.364;2023-12-07T17:46:28;15.90;;;5.85;;
66139;SDS011;52945;51.908;8.364;2023-12-07T17:49:28;11.43;;;5.63;;
66139;SDS011;52945;51.908;8.364;2023-12-07T17:52:29;11.23;;;5.68;;
66139;SDS011;52945;51.908;8.364;2023-12-07T17:55:30;8.82;;;4.50;;
66139;SDS011;52945;51.908;8.364;2023-12-07T17:58:30;11.48;;;5.35;;
66139;SDS011;52945;51.908;8.364;2023-12-07T18:01:31;12.52;;;4.90;;
66139;SDS011;52945;51.908;8.364;2023-12-07T18:04:35;12.68;;;5.07;;
66139;SDS011;52945;51.908;8.364;2023-12-07T18:07:35;13.10;;;5.72;;